Time;durP1;ratioP1;P1;durP2;ratioP2;P2;SDS_P1;SDS_P2;PMS_P1;PMS_P2;Temp;Humidity;BMP_temperature;BMP_pressure;BME280_temperature;BME280_humidity;BME280_pressure;Samples;Min_cycle;Max_cycle;Signal;HPM_P1;HPM_P2
2022/10/01 00:00:33;;;;;;;;;;;10.90;99.90;;;;;;5042776;28;20284;-76
2022/10/01 00:02:58;;;;;;;;;;;11.30;99.90;;;;;;5053553;28;20399;-76
2022/10/01 00:05:24;;;;;;;;;;;11.30;99.90;;;;;;5042791;28;19921;-76
2022/10/01 00:07:49;;;;;;;;;;;11.30;99.90;;;;;;5052686;28;19971;-76
2022/10/01 00:10:15;;;;;;;;;;;11.20;99.90;;;;;;5041307;28;19921;-75
2022/10/01 00:12:47;;;;;;;;;;;11.20;99.90;;;;;;5041498;28;19921;-77
2022/10/01 00:15:14;;;;;;;;;;;11.20;99.90;;;;;;5054021;28;19974;-76
2022/10/01 00:17:40;;;;;;;;;;;11.10;99.90;;;;;;5051695;28;19971;-78
2022/10/01 00:20:06;;;;;;;;;;;11.20;99.90;;;;;;5042726;28;19921;-77
2022/10/01 00:22:35;;;;;;;;;;;11.10;99.90;;;;;;5053339;28;19974;-78
2022/10/01 00:25:00;;;;;;;;;;;11.10;99.90;;;;;;5052785;28;19972;-77
2022/10/01 00:27:26;;;;;;;;;;;11.00;99.90;;;;;;5052059;28;20331;-76
2022/10/01 00:29:52;;;;;;;;;;;11.00;99.90;;;;;;5050854;28;19921;-77
2022/10/01 00:32:18;;;;;;;;;;;11.00;99.90;;;;;;5052138;28;19931;-77
2022/10/01 00:34:44;;;;;;;;;;;11.10;99.90;;;;;;5052952;28;20406;-77
2022/10/01 00:37:09;;;;;;;;;;;9.90;99.90;;;;;;5037182;28;19921;-78
2022/10/01 00:39:35;;;;;;;;;;;11.00;99.90;;;;;;5042491;28;20301;-77
2022/10/01 00:42:01;;;;;;;;;;;10.90;99.90;;;;;;5042023;28;19921;-78
2022/10/01 00:44:31;;;;;;;;;;;11.00;99.90;;;;;;5050722;28;19920;-78
2022/10/01 00:47:01;;;;;;;;;;;11.00;99.90;;;;;;5052082;28;20430;-77
2022/10/01 00:49:29;;;;;;;;;;;11.00;99.90;;;;;;5041685;28;19947;-77
2022/10/01 00:51:57;;;;;;;;;;;10.90;99.90;;;;;;5041837;28;20429;-77
2022/10/01 00:54:36;;;;;;;;;;;11.00;99.90;;;;;;5042777;28;19921;-78
2022/10/01 00:57:03;;;;;;;;;;;10.90;99.90;;;;;;5039612;28;19921;-77
2022/10/01 00:59:28;;;;;;;;;;;10.90;99.90;;;;;;5040965;28;19925;-76
2022/10/01 01:01:54;;;;;;;;;;;10.90;99.90;;;;;;5053258;28;19927;-76
2022/10/01 01:04:20;;;;;;;;;;;10.90;99.90;;;;;;5041383;28;20284;-79
2022/10/01 01:06:52;;;;;;;;;;;11.00;99.90;;;;;;5051945;28;19920;-78
2022/10/01 01:09:18;;;;;;;;;;;10.90;99.90;;;;;;5042962;28;19971;-79
2022/10/01 01:12:03;;;;;;;;;;;11.00;99.90;;;;;;5039506;28;20380;-78
2022/10/01 01:14:56;;;;;;;;;;;11.00;99.90;;;;;;5040854;28;19964;-78
2022/10/01 01:17:24;;;;;;;;;;;10.90;99.90;;;;;;5005935;28;19921;-78
2022/10/01 01:19:53;;;;;;;;;;;11.00;99.90;;;;;;5043162;28;19921;-78
2022/10/01 01:22:20;;;;;;;;;;;11.00;99.90;;;;;;5043557;28;19974;-79
2022/10/01 01:24:49;;;;;;;;;;;10.90;99.90;;;;;;5059755;28;20431;-77
2022/10/01 01:27:24;;;;;;;;;;;10.90;99.90;;;;;;5058860;28;20368;-79
2022/10/01 01:30:07;;;;;;;;;;;11.00;99.90;;;;;;5042168;28;19920;-77
2022/10/01 01:32:38;;;;;;;;;;;11.00;99.90;;;;;;5038356;28;19972;-78
2022/10/01 01:35:06;;;;;;;;;;;11.00;99.90;;;;;;5038353;28;19928;-79
2022/10/01 01:37:34;;;;;;;;;;;10.90;99.90;;;;;;5040336;28;19920;-80
2022/10/01 01:40:01;;;;;;;;;;;10.90;99.90;;;;;;5061856;28;19927;-79
2022/10/01 01:42:36;;;;;;;;;;;11.00;99.90;;;;;;5039889;28;20368;-79
2022/10/01 01:45:04;;;;;;;;;;;11.00;99.90;;;;;;5064973;28;20283;-78
2022/10/01 01:47:32;;;;;;;;;;;11.00;99.90;;;;;;5039525;28;19924;-78
2022/10/01 01:49:58;;;;;;;;;;;11.00;99.90;;;;;;5038608;28;19931;-78
2022/10/01 01:52:27;;;;;;;;;;;11.00;99.90;;;;;;5040012;28;19924;-79
2022/10/01 01:54:53;;;;;;;;;;;11.00;99.90;;;;;;5042921;28;19929;-79
2022/10/01 01:57:19;;;;;;;;;;;11.00;99.90;;;;;;5043914;28;20378;-77
2022/10/01 01:59:45;;;;;;;;;;;11.00;99.90;;;;;;5059904;28;19975;-80
2022/10/01 02:02:15;;;;;;;;;;;11.10;99.90;;;;;;5059541;28;20396;-80
2022/10/01 02:04:47;;;;;;;;;;;11.10;99.90;;;;;;5043783;28;19927;-80
2022/10/01 02:07:15;;;;;;;;;;;11.10;99.90;;;;;;5061890;28;19966;-80
2022/10/01 02:09:44;;;;;;;;;;;11.00;99.90;;;;;;5044110;28;19946;-80
2022/10/01 02:12:30;;;;;;;;;;;11.20;99.90;;;;;;5039855;28;19979;-81
2022/10/01 02:15:08;;;;;;;;;;;11.20;99.90;;;;;;5047471;28;19924;-80
2022/10/01 02:17:43;;;;;;;;;;;11.10;99.90;;;;;;5038683;28;19920;-81
2022/10/01 02:20:23;;;;;;;;;;;11.20;99.90;;;;;;5044199;28;19921;-80
2022/10/01 02:22:58;;;;;;;;;;;11.30;99.90;;;;;;5043141;28;20014;-80
2022/10/01 02:25:25;;;;;;;;;;;11.30;99.90;;;;;;5037353;28;20389;-79
2022/10/01 02:27:59;;;;;;;;;;;11.30;99.90;;;;;;5042167;28;20550;-80
2022/10/01 02:30:26;;;;;;;;;;;11.40;99.90;;;;;;5057735;28;19924;-80
2022/10/01 02:32:53;;;;;;;;;;;11.50;99.90;;;;;;5038764;28;19926;-79
2022/10/01 02:35:19;;;;;;;;;;;11.40;99.90;;;;;;5041864;28;19924;-79
2022/10/01 02:37:47;;;;;;;;;;;11.30;99.90;;;;;;5045087;28;20797;-80
2022/10/01 02:40:15;;;;;;;;;;;11.40;99.90;;;;;;5052943;28;20291;-79
2022/10/01 02:42:44;;;;;;;;;;;11.70;99.90;;;;;;5028678;28;19950;-79
2022/10/01 02:45:12;;;;;;;;;;;11.40;99.90;;;;;;5041402;28;19921;-79
2022/10/01 02:47:46;;;;;;;;;;;11.70;99.90;;;;;;5055690;28;19987;-80
2022/10/01 02:50:11;;;;;;;;;;;11.50;99.90;;;;;;5056777;28;19920;-81
2022/10/01 02:52:37;;;;;;;;;;;11.50;99.90;;;;;;5058658;28;20428;-81
2022/10/01 02:55:04;;;;;;;;;;;11.80;99.90;;;;;;5057947;28;20024;-82
2022/10/01 02:57:31;;;;;;;;;;;11.60;99.90;;;;;;5043852;28;19921;-82
2022/10/01 02:59:58;;;;;;;;;;;11.50;99.90;;;;;;5060683;28;20012;-81
2022/10/01 03:02:26;;;;;;;;;;;11.60;99.90;;;;;;5036689;28;20011;-82
2022/10/01 03:04:53;;;;;;;;;;;11.60;99.90;;;;;;5041698;28;19928;-82
2022/10/01 03:07:18;;;;;;;;;;;11.80;99.90;;;;;;5042413;28;19924;-82
2022/10/01 03:09:44;;;;;;;;;;;11.80;99.90;;;;;;5037824;28;20383;-82
2022/10/01 03:12:10;;;;;;;;;;;11.60;99.90;;;;;;5042888;28;19974;-79
2022/10/01 03:14:35;;;;;;;;;;;11.60;99.90;;;;;;5054077;28;19928;-79
2022/10/01 03:17:01;;;;;;;;;;;11.60;99.90;;;;;;5052219;28;19925;-81
2022/10/01 03:19:26;;;;;;;;;;;11.70;99.90;;;;;;5049473;28;19921;-81
2022/10/01 03:21:52;;;;;;;;;;;11.70;99.90;;;;;;5050226;28;19924;-78
2022/10/01 03:24:18;;;;;;;;;;;11.80;99.90;;;;;;5040783;28;19921;-78
2022/10/01 03:26:44;;;;;;;;;;;11.80;99.90;;;;;;5048415;28;19925;-78
2022/10/01 03:29:10;;;;;;;;;;;11.70;99.90;;;;;;5046921;28;19924;-79
2022/10/01 03:31:36;;;;;;;;;;;11.70;99.90;;;;;;5049693;28;19921;-78
2022/10/01 03:34:02;;;;;;;;;;;11.70;99.90;;;;;;5041511;28;20015;-80
2022/10/01 03:36:28;;;;;;;;;;;11.80;99.90;;;;;;5048872;28;20019;-78
2022/10/01 03:38:54;;;;;;;;;;;11.70;99.90;;;;;;5040625;28;19927;-77
2022/10/01 03:41:19;;;;;;;;;;;11.80;99.90;;;;;;5037471;28;19921;-80
2022/10/01 03:43:48;;;;;;;;;;;11.60;99.90;;;;;;5051329;28;19921;-80
2022/10/01 03:46:13;;;;;;;;;;;12.40;99.90;;;;;;5054474;28;19920;-78
2022/10/01 03:48:39;;;;;;;;;;;11.80;99.90;;;;;;5053052;28;19975;-78
2022/10/01 03:51:07;;;;;;;;;;;11.80;99.90;;;;;;5039233;28;20352;-79
2022/10/01 03:53:33;;;;;;;;;;;11.80;99.90;;;;;;5052010;28;19928;-80
2022/10/01 03:56:02;;;;;;;;;;;11.90;99.90;;;;;;5056288;28;19920;-80
2022/10/01 03:58:27;;;;;;;;;;;12.00;99.90;;;;;;5044517;28;20019;-80
2022/10/01 04:00:54;;;;;;;;;;;12.00;99.90;;;;;;5061516;28;20007;-80
2022/10/01 04:03:19;;;;;;;;;;;12.10;99.90;;;;;;5045964;28;19921;-81
2022/10/01 04:05:45;;;;;;;;;;;12.00;99.90;;;;;;5053705;28;19927;-81
2022/10/01 04:08:11;;;;;;;;;;;12.00;99.90;;;;;;5054449;28;19920;-81
2022/10/01 04:10:37;;;;;;;;;;;12.60;99.90;;;;;;5053452;28;20062;-81
2022/10/01 04:13:03;;;;;;;;;;;12.00;99.90;;;;;;5048621;28;20300;-81
2022/10/01 04:15:28;;;;;;;;;;;12.10;99.90;;;;;;5045475;28;19924;-82
2022/10/01 04:17:54;;;;;;;;;;;12.00;99.90;;;;;;5055846;28;20395;-82
2022/10/01 04:20:19;;;;;;;;;;;12.00;99.90;;;;;;5045257;28;20342;-82
2022/10/01 04:22:45;;;;;;;;;;;12.00;99.90;;;;;;5056588;28;20288;-83
2022/10/01 04:25:11;;;;;;;;;;;12.00;99.90;;;;;;5053228;28;20284;-83
2022/10/01 04:27:56;;;;;;;;;;;12.00;99.90;;;;;;5054094;28;19924;-81
2022/10/01 04:30:29;;;;;;;;;;;12.10;99.90;;;;;;5041456;28;20308;-81
2022/10/01 04:32:55;;;;;;;;;;;12.10;99.90;;;;;;5045218;28;19928;-81
2022/10/01 04:35:21;;;;;;;;;;;12.10;99.90;;;;;;5043842;28;19916;-82
2022/10/01 04:37:47;;;;;;;;;;;12.30;99.90;;;;;;5043987;28;19996;-81
2022/10/01 04:40:12;;;;;;;;;;;12.20;99.90;;;;;;5045002;28;19924;-82
2022/10/01 04:42:40;;;;;;;;;;;12.30;99.90;;;;;;5046065;28;20376;-83
2022/10/01 04:45:06;;;;;;;;;;;12.20;99.90;;;;;;5039161;28;19920;-82
2022/10/01 04:47:32;;;;;;;;;;;12.20;99.90;;;;;;5045842;28;19974;-82
2022/10/01 04:49:57;;;;;;;;;;;12.30;99.90;;;;;;5053776;28;19924;-82
2022/10/01 04:52:23;;;;;;;;;;;12.10;99.90;;;;;;5043208;28;19929;-82
2022/10/01 04:54:51;;;;;;;;;;;12.30;99.90;;;;;;5054078;28;19928;-83
2022/10/01 04:57:17;;;;;;;;;;;12.40;99.90;;;;;;5042802;28;20341;-83
2022/10/01 04:59:42;;;;;;;;;;;12.30;99.90;;;;;;5043749;28;19948;-82
2022/10/01 05:02:08;;;;;;;;;;;12.30;99.90;;;;;;5043915;28;20015;-83
2022/10/01 05:04:34;;;;;;;;;;;12.30;99.90;;;;;;5043899;28;19931;-82
2022/10/01 05:06:59;;;;;;;;;;;12.20;99.90;;;;;;5042507;28;19920;-82
2022/10/01 05:09:25;;;;;;;;;;;12.20;99.90;;;;;;5050727;28;19921;-81
2022/10/01 05:11:50;;;;;;;;;;;12.30;99.90;;;;;;5053558;28;19974;-80
2022/10/01 05:14:18;;;;;;;;;;;12.30;99.90;;;;;;5054854;28;19920;-82
2022/10/01 05:16:44;;;;;;;;;;;12.30;99.90;;;;;;5044150;28;19921;-84
2022/10/01 05:19:13;;;;;;;;;;;12.40;99.90;;;;;;5053056;28;19995;-83
2022/10/01 05:21:38;;;;;;;;;;;12.40;99.90;;;;;;5052412;28;20501;-84
2022/10/01 05:24:07;;;;;;;;;;;12.40;99.90;;;;;;5050212;28;19921;-81
2022/10/01 05:26:35;;;;;;;;;;;12.80;99.90;;;;;;5040154;28;19928;-83
2022/10/01 05:29:00;;;;;;;;;;;12.30;99.90;;;;;;5042541;28;20391;-82
2022/10/01 05:31:26;;;;;;;;;;;12.30;99.90;;;;;;5046216;28;19920;-82
2022/10/01 05:33:51;;;;;;;;;;;12.30;99.90;;;;;;5049131;28;19928;-83
2022/10/01 05:36:17;;;;;;;;;;;12.30;99.90;;;;;;5039629;28;19920;-83
2022/10/01 05:38:42;;;;;;;;;;;12.20;99.90;;;;;;5053115;28;19927;-83
2022/10/01 05:41:08;;;;;;;;;;;12.20;99.90;;;;;;5051912;28;19925;-83
2022/10/01 05:43:35;;;;;;;;;;;12.20;99.90;;;;;;5051003;28;19928;-82
2022/10/01 05:46:01;;;;;;;;;;;12.10;99.90;;;;;;5039794;28;20412;-82
2022/10/01 05:48:26;;;;;;;;;;;12.10;99.90;;;;;;5051092;28;20008;-81
2022/10/01 05:50:53;;;;;;;;;;;12.00;99.90;;;;;;5040665;28;20015;-81
2022/10/01 05:53:19;;;;;;;;;;;12.00;99.90;;;;;;5037193;28;19975;-80
2022/10/01 05:55:44;;;;;;;;;;;11.90;99.90;;;;;;5041805;28;19964;-80
2022/10/01 05:58:11;;;;;;;;;;;11.90;99.90;;;;;;5042154;28;19924;-81
2022/10/01 06:00:37;;;;;;;;;;;11.90;99.90;;;;;;5042572;28;20297;-80
2022/10/01 06:03:06;;;;;;;;;;;11.80;99.90;;;;;;5041744;28;19925;-81
2022/10/01 06:05:33;;;;;;;;;;;11.80;99.90;;;;;;5041241;28;20438;-80
2022/10/01 06:07:59;;;;;;;;;;;11.70;99.90;;;;;;5041983;28;20355;-80
2022/10/01 06:10:26;;;;;;;;;;;11.40;99.90;;;;;;5041307;28;19921;-80
2022/10/01 06:12:56;;;;;;;;;;;11.60;99.90;;;;;;5045507;28;20352;-79
2022/10/01 06:15:22;;;;;;;;;;;11.60;99.90;;;;;;5042468;28;19928;-79
2022/10/01 06:17:47;;;;;;;;;;;11.70;99.90;;;;;;5043549;28;19924;-80
2022/10/01 06:20:14;;;;;;;;;;;11.80;99.90;;;;;;5054723;28;19928;-81
2022/10/01 06:22:43;;;;;;;;;;;11.70;99.90;;;;;;5042002;28;19920;-81
2022/10/01 06:25:09;;;;;;;;;;;11.60;99.90;;;;;;5055141;28;19920;-80
2022/10/01 06:27:35;;;;;;;;;;;11.70;99.90;;;;;;5035938;28;20019;-79
2022/10/01 06:30:01;;;;;;;;;;;11.70;99.90;;;;;;5035822;28;19925;-80
2022/10/01 06:32:26;;;;;;;;;;;12.10;99.90;;;;;;5035592;28;19981;-81
2022/10/01 06:34:52;;;;;;;;;;;11.80;99.90;;;;;;5034895;28;19939;-79
2022/10/01 06:37:17;;;;;;;;;;;11.80;99.90;;;;;;5034424;28;20032;-81
2022/10/01 06:39:43;;;;;;;;;;;11.80;99.90;;;;;;5033547;28;20280;-79
2022/10/01 06:42:11;;;;;;;;;;;11.70;99.90;;;;;;5035521;28;19921;-81
2022/10/01 06:44:36;;;;;;;;;;;11.70;99.90;;;;;;5034701;28;20005;-80
2022/10/01 06:47:02;;;;;;;;;;;12.20;99.90;;;;;;5033917;28;19967;-81
2022/10/01 06:49:28;;;;;;;;;;;11.70;99.90;;;;;;5051085;28;20410;-81
2022/10/01 06:54:38;;;;;;;;;;;11.60;99.90;;;;;;5051899;28;20593;-78
2022/10/01 06:57:04;;;;;;;;;;;11.60;99.90;;;;;;5053791;28;20391;-78
2022/10/01 06:59:30;;;;;;;;;;;11.50;99.90;;;;;;5043250;28;19927;-78
2022/10/01 07:01:55;;;;;;;;;;;11.60;99.90;;;;;;5042237;28;20012;-78
2022/10/01 07:04:21;;;;;;;;;;;11.70;99.90;;;;;;5037970;28;20015;-79
2022/10/01 07:06:46;;;;;;;;;;;11.80;99.90;;;;;;5040859;28;19921;-80
2022/10/01 07:09:12;;;;;;;;;;;11.90;99.90;;;;;;5041967;28;19956;-80
2022/10/01 07:11:41;;;;;;;;;;;11.90;99.90;;;;;;5050557;28;19921;-78
2022/10/01 07:14:07;;;;;;;;;;;12.00;99.90;;;;;;5049400;28;19921;-77
2022/10/01 07:16:33;;;;;;;;;;;12.10;99.90;;;;;;5035192;28;19975;-78
2022/10/01 07:18:59;;;;;;;;;;;12.10;99.90;;;;;;5030332;28;19933;-79
2022/10/01 07:21:24;;;;;;;;;;;12.30;99.90;;;;;;5029016;28;20332;-76
2022/10/01 07:23:50;;;;;;;;;;;12.30;99.90;;;;;;5032040;28;19921;-79
2022/10/01 07:26:16;;;;;;;;;;;12.70;99.90;;;;;;5032981;28;20384;-76
2022/10/01 07:28:47;;;;;;;;;;;12.60;99.90;;;;;;5032642;28;19928;-76
2022/10/01 07:31:13;;;;;;;;;;;12.70;99.90;;;;;;5035342;28;19971;-80
2022/10/01 07:33:39;;;;;;;;;;;12.80;99.90;;;;;;5027135;28;20309;-77
2022/10/01 07:36:06;;;;;;;;;;;13.10;99.90;;;;;;5034293;28;19921;-73
2022/10/01 07:38:34;;;;;;;;;;;14.00;99.90;;;;;;5028744;28;19928;-77
2022/10/01 07:41:01;;;;;;;;;;;15.60;99.90;;;;;;5042887;28;19920;-78
2022/10/01 07:43:28;;;;;;;;;;;16.50;99.90;;;;;;5034894;28;20369;-78
2022/10/01 07:45:56;;;;;;;;;;;17.40;99.90;;;;;;5033760;28;19928;-75
2022/10/01 07:48:22;;;;;;;;;;;17.90;99.90;;;;;;5032150;28;19969;-86
2022/10/01 07:50:48;;;;;;;;;;;18.20;99.90;;;;;;5034354;28;19921;-77
2022/10/01 07:53:13;;;;;;;;;;;17.90;99.90;;;;;;5030915;28;19928;-85
2022/10/01 07:55:39;;;;;;;;;;;17.30;99.90;;;;;;5032671;28;19971;-83
2022/10/01 07:58:05;;;;;;;;;;;16.80;99.90;;;;;;5035267;28;19917;-78
2022/10/01 08:00:31;;;;;;;;;;;16.30;99.90;;;;;;5034389;28;20014;-79
2022/10/01 08:02:57;;;;;;;;;;;16.00;99.90;;;;;;5030146;28;19924;-77
2022/10/01 08:05:24;;;;;;;;;;;15.70;99.90;;;;;;5034429;28;19921;-76
2022/10/01 08:07:50;;;;;;;;;;;15.40;99.90;;;;;;5032505;28;20436;-79
2022/10/01 08:10:17;;;;;;;;;;;15.10;99.90;;;;;;5032791;28;19917;-80
2022/10/01 08:12:43;;;;;;;;;;;14.90;99.90;;;;;;5034712;28;19968;-78
2022/10/01 08:15:10;;;;;;;;;;;14.60;99.90;;;;;;5033318;28;20015;-83
2022/10/01 08:17:37;;;;;;;;;;;14.40;99.90;;;;;;5034774;28;19917;-89
2022/10/01 08:20:03;;;;;;;;;;;14.30;99.90;;;;;;5055125;28;19921;-83
2022/10/01 08:22:29;;;;;;;;;;;14.30;99.90;;;;;;5047740;28;19927;-86
2022/10/01 08:24:54;;;;;;;;;;;14.90;99.90;;;;;;5045526;28;19920;-85
2022/10/01 08:27:22;;;;;;;;;;;15.50;99.90;;;;;;5054785;28;19925;-88
2022/10/01 08:29:48;;;;;;;;;;;16.80;99.90;;;;;;5053651;28;19981;-79
2022/10/01 08:32:14;;;;;;;;;;;17.90;99.90;;;;;;5041512;28;20270;-77
2022/10/01 08:34:40;;;;;;;;;;;18.40;99.90;;;;;;5044701;28;19925;-83
2022/10/01 08:37:05;;;;;;;;;;;18.20;99.90;;;;;;5044377;28;19928;-81
2022/10/01 08:39:31;;;;;;;;;;;18.90;99.90;;;;;;5053359;28;19927;-81
2022/10/01 08:42:20;;;;;;;;;;;20.20;99.90;;;;;;5039896;28;19978;-82
2022/10/01 08:44:46;;;;;;;;;;;21.20;99.90;;;;;;5054381;28;19921;-84
2022/10/01 08:47:15;;;;;;;;;;;22.30;99.90;;;;;;5038092;28;19921;-81
2022/10/01 08:49:43;;;;;;;;;;;23.10;99.90;;;;;;5044126;28;19921;-78
2022/10/01 08:52:15;;;;;;;;;;;23.90;99.90;;;;;;5045427;28;19931;-87
2022/10/01 08:54:40;;;;;;;;;;;24.70;99.90;;;;;;5049442;28;19920;-89
2022/10/01 08:57:10;;;;;;;;;;;25.10;96.70;;;;;;5045283;28;19920;-83
2022/10/01 08:59:41;;;;;;;;;;;24.40;99.90;;;;;;5053246;28;20321;-81
2022/10/01 09:02:21;;;;;;;;;;;22.20;97.00;;;;;;5044288;28;19971;-81
2022/10/01 09:04:49;;;;;;;;;;;21.00;99.20;;;;;;5035749;28;19921;-80
2022/10/01 09:07:17;;;;;;;;;;;19.90;99.90;;;;;;5047491;28;19921;-77
2022/10/01 09:09:56;;;;;;;;;;;19.00;99.90;;;;;;5052739;28;19921;-77
2022/10/01 09:12:22;;;;;;;;;;;17.90;99.90;;;;;;5036592;28;20391;-83
2022/10/01 09:14:59;;;;;;;;;;;17.20;99.90;;;;;;5041531;28;19951;-81
2022/10/01 09:17:43;;;;;;;;;;;16.70;99.90;;;;;;5035506;28;20290;-75
2022/10/01 09:20:14;;;;;;;;;;;16.40;99.90;;;;;;5044107;28;19987;-76
2022/10/01 09:22:45;;;;;;;;;;;16.00;99.90;;;;;;5040370;28;19955;-75
2022/10/01 09:25:12;;;;;;;;;;;15.60;99.90;;;;;;5041448;28;19920;-78
2022/10/01 09:27:38;;;;;;;;;;;15.40;99.90;;;;;;5048705;28;20007;-85
2022/10/01 09:30:17;;;;;;;;;;;15.30;99.90;;;;;;5049493;28;20057;-76
2022/10/01 09:32:45;;;;;;;;;;;15.00;99.90;;;;;;5046981;28;19982;-73
2022/10/01 09:35:19;;;;;;;;;;;14.70;99.90;;;;;;5037190;28;19967;-73
2022/10/01 09:37:56;;;;;;;;;;;14.40;99.90;;;;;;5037277;28;20357;-76
2022/10/01 09:40:24;;;;;;;;;;;14.30;99.90;;;;;;5050507;28;19921;-80
2022/10/01 09:42:53;;;;;;;;;;;14.20;99.90;;;;;;5040605;28;19924;-83
2022/10/01 09:45:20;;;;;;;;;;;14.10;99.90;;;;;;5046253;28;20381;-83
2022/10/01 09:47:47;;;;;;;;;;;14.00;99.90;;;;;;5053030;28;20443;-73
2022/10/01 09:50:23;;;;;;;;;;;14.10;99.90;;;;;;5053739;28;19943;-88
2022/10/01 09:52:50;;;;;;;;;;;14.20;99.90;;;;;;5036891;28;19932;-92
2022/10/01 09:55:26;;;;;;;;;;;14.10;99.90;;;;;;5045419;28;19947;-83
2022/10/01 09:57:58;;;;;;;;;;;14.10;99.90;;;;;;5044277;28;19928;-85
2022/10/01 10:00:24;;;;;;;;;;;14.10;99.90;;;;;;5047698;28;19920;-82
2022/10/01 10:02:52;;;;;;;;;;;14.00;99.90;;;;;;5048152;28;19924;-82
2022/10/01 10:05:25;;;;;;;;;;;13.90;99.90;;;;;;5055700;28;19947;-86
2022/10/01 10:07:57;;;;;;;;;;;13.80;99.90;;;;;;5058311;28;19971;-83
2022/10/01 10:10:27;;;;;;;;;;;13.80;99.90;;;;;;5046520;28;19920;-83
2022/10/01 10:12:57;;;;;;;;;;;13.80;99.90;;;;;;5039857;28;19947;-75
2022/10/01 10:15:25;;;;;;;;;;;13.70;99.90;;;;;;5053005;28;19924;-72
2022/10/01 10:17:51;;;;;;;;;;;13.70;99.90;;;;;;5045708;28;19929;-79
2022/10/01 10:20:38;;;;;;;;;;;13.60;99.90;;;;;;5045361;28;20016;-76
2022/10/01 10:23:04;;;;;;;;;;;13.70;99.90;;;;;;5050609;28;19927;-83
2022/10/01 10:25:30;;;;;;;;;;;13.90;99.90;;;;;;5045017;28;19921;-88
2022/10/01 10:27:58;;;;;;;;;;;13.90;99.90;;;;;;5046398;28;20336;-76
2022/10/01 10:30:25;;;;;;;;;;;14.00;99.90;;;;;;5051779;28;19944;-77
2022/10/01 10:33:00;;;;;;;;;;;14.50;99.90;;;;;;5052451;28;20261;-81
2022/10/01 10:35:27;;;;;;;;;;;16.30;99.90;;;;;;5052461;28;19933;-75
2022/10/01 10:37:54;;;;;;;;;;;18.30;99.90;;;;;;5059270;28;19985;-78
2022/10/01 10:40:28;;;;;;;;;;;19.60;99.90;;;;;;5041106;28;19921;-83
2022/10/01 10:42:55;;;;;;;;;;;19.70;99.90;;;;;;5042118;28;19925;-83
2022/10/01 10:45:28;;;;;;;;;;;19.60;99.90;;;;;;5037589;28;20360;-80
2022/10/01 10:47:54;;;;;;;;;;;19.50;99.90;;;;;;5037533;28;19940;-87
2022/10/01 10:50:31;;;;;;;;;;;19.90;99.90;;;;;;5049938;28;21255;-86
2022/10/01 10:52:56;;;;;;;;;;;21.10;99.90;;;;;;5037352;28;19970;-81
2022/10/01 10:55:29;;;;;;;;;;;21.10;99.90;;;;;;5041612;28;19924;-86
2022/10/01 10:58:08;;;;;;;;;;;21.20;99.90;;;;;;5048213;28;20379;-88
2022/10/01 11:00:35;;;;;;;;;;;21.70;99.90;;;;;;5045525;28;20059;-73
2022/10/01 11:03:03;;;;;;;;;;;23.10;99.90;;;;;;5042211;28;19921;-79
2022/10/01 11:05:31;;;;;;;;;;;23.70;99.90;;;;;;5044474;28;20368;-87
2022/10/01 11:07:58;;;;;;;;;;;23.10;99.40;;;;;;5050368;28;19928;-89
2022/10/01 11:10:29;;;;;;;;;;;22.10;98.70;;;;;;5053023;28;19925;-81
2022/10/01 11:12:56;;;;;;;;;;;21.20;99.20;;;;;;5050836;28;20015;-84
2022/10/01 11:15:29;;;;;;;;;;;20.20;99.90;;;;;;5051304;28;20045;-87
2022/10/01 11:18:01;;;;;;;;;;;19.50;99.90;;;;;;5039982;28;19928;-88
2022/10/01 11:20:50;;;;;;;;;;;19.20;99.90;;;;;;5031505;28;19921;-82
2022/10/01 11:23:28;;;;;;;;;;;18.90;99.90;;;;;;5004424;28;20354;-77
2022/10/01 11:26:04;;;;;;;;;;;18.70;99.90;;;;;;5051940;28;19968;-85
2022/10/01 11:28:35;;;;;;;;;;;18.10;99.90;;;;;;5050958;28;19963;-85
2022/10/01 11:31:01;;;;;;;;;;;18.00;99.90;;;;;;5053992;28;20332;-78
2022/10/01 11:33:53;;;;;;;;;;;18.00;99.90;;;;;;5041516;28;20015;-77
2022/10/01 11:36:37;;;;;;;;;;;18.00;99.90;;;;;;5042553;28;20415;-80
2022/10/01 11:39:04;;;;;;;;;;;18.10;99.90;;;;;;5031624;28;19928;-81
2022/10/01 11:41:33;;;;;;;;;;;17.80;99.90;;;;;;5044613;28;19920;-79
2022/10/01 11:44:31;;;;;;;;;;;17.60;99.90;;;;;;5042996;28;19924;-82
2022/10/01 11:47:09;;;;;;;;;;;18.00;99.90;;;;;;5000604;28;19920;-83
2022/10/01 11:49:53;;;;;;;;;;;18.80;99.90;;;;;;5042571;28;19924;-85
2022/10/01 11:52:19;;;;;;;;;;;20.40;99.90;;;;;;5038287;28;19927;-83
2022/10/01 11:54:51;;;;;;;;;;;21.80;99.90;;;;;;5041300;28;20296;-78
2022/10/01 12:00:05;;;;;;;;;;;22.80;99.60;;;;;;5050036;28;19924;-74
2022/10/01 12:02:38;;;;;;;;;;;22.60;99.90;;;;;;5047951;28;20288;-85
2022/10/01 12:05:10;;;;;;;;;;;23.30;99.30;;;;;;5054490;28;19920;-80
2022/10/01 12:07:57;;;;;;;;;;;23.30;98.50;;;;;;5045685;28;19924;-80
2022/10/01 12:10:41;;;;;;;;;;;24.00;98.10;;;;;;5030310;28;19927;-81
2022/10/01 12:13:26;;;;;;;;;;;23.20;97.60;;;;;;5048650;28;19920;-84
2022/10/01 12:15:54;;;;;;;;;;;21.90;98.30;;;;;;5045108;28;19920;-83
2022/10/01 12:18:29;;;;;;;;;;;20.70;99.90;;;;;;5038287;28;19921;-85
2022/10/01 12:21:13;;;;;;;;;;;20.10;99.90;;;;;;5053628;28;20364;-83
2022/10/01 12:23:49;;;;;;;;;;;19.20;99.90;;;;;;5052835;28;19928;-84
2022/10/01 12:26:15;;;;;;;;;;;18.60;99.90;;;;;;5040316;28;19928;-88
2022/10/01 12:28:45;;;;;;;;;;;17.90;99.90;;;;;;5057739;28;19921;-77
2022/10/01 12:31:29;;;;;;;;;;;17.60;99.90;;;;;;5055004;28;19967;-87
2022/10/01 12:34:00;;;;;;;;;;;17.30;99.90;;;;;;5029978;28;19928;-80
2022/10/01 12:36:47;;;;;;;;;;;17.60;99.90;;;;;;5041289;28;19916;-82
2022/10/01 12:39:36;;;;;;;;;;;17.80;99.90;;;;;;5055415;28;19975;-79
2022/10/01 12:42:17;;;;;;;;;;;17.60;99.90;;;;;;5011307;28;19966;-86
2022/10/01 12:45:03;;;;;;;;;;;17.40;99.90;;;;;;5043537;28;19920;-87
2022/10/01 12:47:49;;;;;;;;;;;17.20;99.90;;;;;;5065462;23;20381;-87
2022/10/01 12:50:20;;;;;;;;;;;18.10;99.90;;;;;;5022536;28;19921;-88
2022/10/01 12:52:49;;;;;;;;;;;19.20;99.90;;;;;;5006552;28;20019;-85
2022/10/01 12:55:32;;;;;;;;;;;19.90;99.90;;;;;;5033204;28;19921;-84
2022/10/01 12:58:30;;;;;;;;;;;20.30;99.90;;;;;;5014065;28;19921;-82
2022/10/01 13:01:10;;;;;;;;;;;20.60;99.90;;;;;;4992977;28;20328;-80
2022/10/01 13:04:00;;;;;;;;;;;20.70;99.90;;;;;;5034018;28;20361;-76
2022/10/01 13:06:33;;;;;;;;;;;20.80;99.90;;;;;;4997698;28;20015;-82
2022/10/01 13:09:02;;;;;;;;;;;20.70;99.90;;;;;;5011355;28;19928;-81
2022/10/01 13:11:37;;;;;;;;;;;20.40;99.90;;;;;;5034014;28;19917;-79
2022/10/01 13:14:03;;;;;;;;;;;20.30;99.90;;;;;;5016668;28;19928;-77
2022/10/01 13:16:28;;;;;;;;;;;20.10;99.90;;;;;;5011791;28;20472;-78
2022/10/01 13:19:03;;;;;;;;;;;20.10;99.90;;;;;;5009829;28;19933;-81
2022/10/01 13:21:47;;;;;;;;;;;20.00;99.90;;;;;;5011716;28;19929;-81
2022/10/01 13:24:12;;;;;;;;;;;20.00;99.90;;;;;;5029846;28;19983;-77
2022/10/01 13:26:52;;;;;;;;;;;19.80;99.90;;;;;;5013389;28;19968;-79
2022/10/01 13:29:43;;;;;;;;;;;19.70;99.90;;;;;;5013672;28;19960;-77
2022/10/01 13:32:27;;;;;;;;;;;19.60;99.90;;;;;;5028703;28;20296;-82
2022/10/01 13:34:52;;;;;;;;;;;19.50;99.90;;;;;;5014379;28;20392;-83
2022/10/01 13:37:30;;;;;;;;;;;19.30;99.90;;;;;;5014130;28;19921;-86
2022/10/01 13:39:56;;;;;;;;;;;19.30;99.90;;;;;;5013597;28;19924;-85
2022/10/01 13:42:27;;;;;;;;;;;19.30;99.90;;;;;;5032148;28;20347;-84
2022/10/01 13:44:55;;;;;;;;;;;18.80;99.90;;;;;;5014416;28;19928;-86
2022/10/01 13:47:21;;;;;;;;;;;19.00;99.90;;;;;;5030051;28;20381;-85
2022/10/01 13:49:54;;;;;;;;;;;19.00;99.90;;;;;;5031444;28;20366;-79
2022/10/01 13:52:20;;;;;;;;;;;18.90;99.90;;;;;;5031840;28;19932;-85
2022/10/01 13:54:48;;;;;;;;;;;18.80;99.90;;;;;;5013578;28;19925;-83
2022/10/01 13:57:26;;;;;;;;;;;18.80;99.90;;;;;;5030732;28;20015;-80
2022/10/01 14:00:10;;;;;;;;;;;18.80;99.90;;;;;;5010784;28;20457;-78
2022/10/01 14:02:37;;;;;;;;;;;18.80;99.90;;;;;;5008726;28;20138;-81
2022/10/01 14:05:33;;;;;;;;;;;18.70;99.90;;;;;;5031429;28;19921;-83
2022/10/01 14:08:22;;;;;;;;;;;18.60;99.90;;;;;;4996602;28;19928;-81
2022/10/01 14:16:40;;;;;;;;;;;18.40;99.90;;;;;;5027048;28;20311;-76
2022/10/01 14:19:06;;;;;;;;;;;18.30;99.90;;;;;;5027593;28;20361;-75
2022/10/01 14:21:31;;;;;;;;;;;18.20;99.90;;;;;;5012823;28;20048;-74
2022/10/01 14:24:06;;;;;;;;;;;18.10;99.90;;;;;;5012397;28;20090;-76
2022/10/01 14:26:40;;;;;;;;;;;18.00;99.90;;;;;;5023053;28;20377;-75
2022/10/01 14:29:24;;;;;;;;;;;17.90;99.90;;;;;;5011709;28;19925;-75
2022/10/01 14:31:50;;;;;;;;;;;17.80;99.90;;;;;;5012839;28;20011;-81
2022/10/01 14:34:28;;;;;;;;;;;17.80;99.90;;;;;;5013458;28;20395;-81
2022/10/01 14:36:56;;;;;;;;;;;17.80;99.90;;;;;;5004640;28;19974;-84
2022/10/01 14:39:23;;;;;;;;;;;17.80;99.90;;;;;;5012079;28;19928;-85
2022/10/01 14:41:50;;;;;;;;;;;17.80;99.90;;;;;;5012903;28;20762;-84